createdAt,value
2023-03-26T00:02:49.951Z,7.66
2023-03-26T00:06:06.080Z,7.66
2023-03-26T00:09:10.652Z,7.66
2023-03-26T00:12:13.829Z,7.62
2023-03-26T00:15:16.737Z,7.44
2023-03-26T00:18:21.648Z,7.40
2023-03-26T00:21:28.325Z,7.44
2023-03-26T00:24:31.512Z,7.33
2023-03-26T00:27:34.382Z,7.41
2023-03-26T00:30:37.407Z,7.23
2023-03-26T00:33:41.426Z,7.14
2023-03-26T00:36:47.003Z,7.15
2023-03-26T00:39:49.889Z,7.09
2023-03-26T00:42:52.788Z,7.22
2023-03-26T00:45:55.899Z,7.18
2023-03-26T00:49:00.358Z,7.17
2023-03-26T00:52:03.633Z,7.22
2023-03-26T00:55:07.374Z,7.11
2023-03-26T00:58:10.597Z,7.04
2023-03-26T01:01:17.391Z,7.07
2023-03-26T01:04:34.782Z,6.99
2023-03-26T01:07:38.274Z,6.93
2023-03-26T01:10:43.520Z,6.81
2023-03-26T01:14:19.926Z,6.81
2023-03-26T01:17:23.954Z,6.78
2023-03-26T01:20:30.542Z,6.72
2023-03-26T01:23:51.305Z,6.86
2023-03-26T01:27:17.935Z,6.96
2023-03-26T01:30:27.556Z,6.86
2023-03-26T01:33:36.708Z,6.74
2023-03-26T01:36:47.104Z,6.59
2023-03-26T01:40:07.010Z,6.35
2023-03-26T01:43:22.252Z,6.31
2023-03-26T01:46:27.258Z,6.19
2023-03-26T01:49:31.855Z,5.98
2023-03-26T01:52:35.317Z,6.08
2023-03-26T01:56:20.499Z,5.94
2023-03-26T01:59:49.458Z,5.95
2023-03-26T02:02:55.564Z,5.81
2023-03-26T02:06:04.861Z,5.63
2023-03-26T02:09:10.961Z,5.67
2023-03-26T02:12:16.252Z,5.49
2023-03-26T02:15:19.688Z,5.38
2023-03-26T02:18:24.334Z,5.38
2023-03-26T02:21:28.622Z,5.31
2023-03-26T02:24:31.315Z,5.40
2023-03-26T02:27:34.506Z,5.27
2023-03-26T02:30:37.900Z,5.02
2023-03-26T02:33:40.987Z,5.10
2023-03-26T02:36:43.688Z,5.11
2023-03-26T02:39:46.995Z,5.07
2023-03-26T02:42:50.453Z,4.88
2023-03-26T02:45:53.780Z,4.94
2023-03-26T02:49:00.201Z,5.04
2023-03-26T02:52:06.519Z,5.30
2023-03-26T02:55:09.704Z,5.16
2023-03-26T02:58:17.336Z,5.09
2023-03-26T03:01:20.180Z,5.15
2023-03-26T03:04:23.757Z,5.01
2023-03-26T03:07:26.534Z,5.10
2023-03-26T03:10:32.782Z,5.01
2023-03-26T03:13:36.058Z,4.69
2023-03-26T03:16:38.978Z,4.75
2023-03-26T03:19:41.935Z,4.70
2023-03-26T03:22:44.962Z,4.79
2023-03-26T03:25:48.033Z,4.73
2023-03-26T03:28:51.179Z,4.59
2023-03-26T03:31:54.012Z,4.62
2023-03-26T03:34:58.662Z,4.64
2023-03-26T03:38:01.545Z,4.40
2023-03-26T03:41:07.634Z,4.43
2023-03-26T03:44:10.566Z,4.36
2023-03-26T03:47:15.560Z,4.18
2023-03-26T03:50:18.847Z,4.22
2023-03-26T03:53:26.258Z,4.20
2023-03-26T03:56:29.244Z,4.22
2023-03-26T03:59:34.089Z,4.25
2023-03-26T04:02:39.119Z,4.25
2023-03-26T04:05:43.832Z,4.19
2023-03-26T04:08:46.857Z,4.00
2023-03-26T04:11:51.046Z,4.18
2023-03-26T04:14:54.549Z,3.84
2023-03-26T04:17:57.726Z,4.01
2023-03-26T04:21:03.345Z,4.09
2023-03-26T04:24:07.311Z,4.25
2023-03-26T04:27:19.056Z,4.13
2023-03-26T04:30:23.362Z,4.12
2023-03-26T04:33:35.784Z,4.32
2023-03-26T04:36:42.403Z,4.23
2023-03-26T04:39:45.475Z,4.50
2023-03-26T04:42:54.698Z,4.42
2023-03-26T04:45:58.158Z,4.26
2023-03-26T04:49:02.229Z,4.50
2023-03-26T04:52:05.612Z,4.60
2023-03-26T04:55:33.208Z,4.67
2023-03-26T04:58:36.252Z,4.83
2023-03-26T05:01:40.509Z,4.88
2023-03-26T05:04:46.074Z,4.86
2023-03-26T05:07:49.512Z,4.94
2023-03-26T05:10:54.135Z,4.93
2023-03-26T05:13:57.771Z,5.01
2023-03-26T05:17:01.537Z,4.92
2023-03-26T05:20:05.830Z,4.73
2023-03-26T05:23:17.088Z,4.81
2023-03-26T05:26:20.738Z,5.10
2023-03-26T05:29:24.353Z,5.14
2023-03-26T05:32:27.816Z,5.22
2023-03-26T05:35:30.549Z,5.38
2023-03-26T05:38:34.224Z,5.49
2023-03-26T05:41:37.593Z,5.50
2023-03-26T05:44:40.912Z,5.72
2023-03-26T05:47:44.643Z,5.80
2023-03-26T05:50:49.152Z,5.85
2023-03-26T05:53:52.400Z,6.18
2023-03-26T05:57:00.554Z,6.32
2023-03-26T06:00:09.136Z,6.53
2023-03-26T06:03:19.257Z,6.77
2023-03-26T06:06:24.105Z,6.93
2023-03-26T06:09:29.595Z,7.20
2023-03-26T06:12:32.822Z,7.61
2023-03-26T06:15:35.711Z,7.81
2023-03-26T06:18:40.145Z,8.01
2023-03-26T06:21:52.810Z,8.21
2023-03-26T06:24:56.335Z,8.24
2023-03-26T06:27:59.020Z,8.39
2023-03-26T06:31:02.985Z,8.59
2023-03-26T06:34:06.379Z,8.73
2023-03-26T06:37:09.349Z,8.91
2023-03-26T06:40:13.625Z,9.09
2023-03-26T06:43:18.256Z,9.22
2023-03-26T06:46:23.583Z,9.38
2023-03-26T06:49:30.405Z,9.46
2023-03-26T06:52:38.217Z,9.63
2023-03-26T06:55:41.931Z,9.56
2023-03-26T06:58:45.601Z,10.03
2023-03-26T07:01:53.858Z,10.12
2023-03-26T07:05:13.938Z,10.28
2023-03-26T07:08:26.920Z,10.47
2023-03-26T07:11:34.532Z,10.62
2023-03-26T07:14:38.884Z,10.71
2023-03-26T07:17:42.205Z,10.83
2023-03-26T07:20:46.525Z,10.90
2023-03-26T07:23:49.745Z,11.11
2023-03-26T07:26:57.309Z,11.23
2023-03-26T07:30:08.114Z,11.37
2023-03-26T07:33:48.760Z,11.45
2023-03-26T07:37:05.730Z,11.61
2023-03-26T07:40:37.825Z,11.62
2023-03-26T07:43:50.805Z,11.76
2023-03-26T07:46:54.815Z,11.84
2023-03-26T07:49:58.337Z,12.01
2023-03-26T07:53:02.947Z,12.14
2023-03-26T07:56:16.702Z,12.24
2023-03-26T07:59:40.344Z,12.34
2023-03-26T08:03:02.467Z,12.47
2023-03-26T08:06:10.497Z,12.67
2023-03-26T08:09:24.074Z,12.75
2023-03-26T08:12:31.697Z,12.85
2023-03-26T08:16:12.060Z,13.04
2023-03-26T08:19:27.333Z,13.10
2023-03-26T08:22:38.447Z,13.30
2023-03-26T08:26:07.626Z,13.38
2023-03-26T08:29:28.516Z,13.30
2023-03-26T08:32:31.866Z,13.51
2023-03-26T08:35:35.294Z,13.63
2023-03-26T08:38:38.395Z,13.70
2023-03-26T08:41:46.767Z,13.80
2023-03-26T08:45:03.781Z,13.93
2023-03-26T08:48:44.299Z,14.01
2023-03-26T08:52:13.416Z,14.00
2023-03-26T08:55:38.298Z,14.20
2023-03-26T08:58:55.074Z,14.36
2023-03-26T09:02:04.932Z,14.38
2023-03-26T09:05:26.487Z,14.47
2023-03-26T09:08:57.463Z,14.56
2023-03-26T09:12:19.353Z,14.58
2023-03-26T09:15:50.150Z,14.81
2023-03-26T09:19:35.062Z,14.80
2023-03-26T09:23:14.994Z,14.94
2023-03-26T09:26:51.531Z,14.99
2023-03-26T09:30:03.017Z,14.98
2023-03-26T09:33:28.471Z,15.06
2023-03-26T09:36:49.701Z,15.31
2023-03-26T09:40:17.533Z,15.14
2023-03-26T09:43:48.965Z,15.50
2023-03-26T09:47:12.022Z,15.68
2023-03-26T09:50:17.434Z,15.83
2023-03-26T09:53:23.039Z,15.64
2023-03-26T09:56:41.619Z,15.41
2023-03-26T09:59:44.998Z,15.72
2023-03-26T10:03:08.946Z,15.94
2023-03-26T10:06:28.133Z,15.76
2023-03-26T10:09:56.742Z,16.02
2023-03-26T10:13:15.924Z,16.25
2023-03-26T10:16:31.391Z,16.30
2023-03-26T10:19:43.487Z,16.31
2023-03-26T10:23:00.768Z,16.34
2023-03-26T10:26:17.863Z,16.40
2023-03-26T10:29:26.750Z,16.46
2023-03-26T10:32:45.338Z,16.60
2023-03-26T10:36:02.760Z,16.61
2023-03-26T10:39:37.237Z,16.57
2023-03-26T10:42:56.078Z,16.51
2023-03-26T10:46:37.408Z,16.56
2023-03-26T10:49:54.872Z,16.81
2023-03-26T10:53:02.258Z,17.14
2023-03-26T10:56:23.346Z,17.07
2023-03-26T10:59:27.685Z,17.07
2023-03-26T11:02:39.429Z,17.08
2023-03-26T11:06:16.003Z,16.92
2023-03-26T11:09:28.268Z,17.06
2023-03-26T11:12:42.362Z,17.12
2023-03-26T11:16:22.674Z,17.18
2023-03-26T11:20:01.707Z,17.21
2023-03-26T11:23:29.132Z,17.31
2023-03-26T11:26:55.722Z,17.36
2023-03-26T11:30:23.512Z,17.01
2023-03-26T11:33:33.048Z,17.24
2023-03-26T11:36:39.734Z,17.17
2023-03-26T11:39:56.849Z,17.52
2023-03-26T11:43:03.850Z,17.42
2023-03-26T11:46:12.099Z,17.53
2023-03-26T11:49:19.340Z,17.54
2023-03-26T11:52:22.648Z,17.52
2023-03-26T11:55:27.683Z,17.46
2023-03-26T11:58:39.128Z,17.71
2023-03-26T12:02:04.925Z,17.66
2023-03-26T12:05:21.752Z,17.71
2023-03-26T12:08:34.591Z,17.79
2023-03-26T12:11:38.015Z,17.81
2023-03-26T12:14:43.277Z,17.79
2023-03-26T12:17:56.545Z,17.87
2023-03-26T12:21:10.282Z,17.91
2023-03-26T12:24:32.001Z,17.69
2023-03-26T12:27:38.025Z,17.81
2023-03-26T12:31:01.023Z,17.74
2023-03-26T12:34:07.972Z,17.92
2023-03-26T12:37:37.292Z,17.72
2023-03-26T12:40:42.534Z,17.89
2023-03-26T12:44:46.087Z,17.65
2023-03-26T12:47:57.131Z,17.92
2023-03-26T12:51:11.156Z,18.11
2023-03-26T12:54:35.437Z,18.22
2023-03-26T12:57:58.619Z,18.17
2023-03-26T13:01:16.039Z,18.08
2023-03-26T13:05:05.795Z,18.08
2023-03-26T13:08:41.657Z,18.01
2023-03-26T13:11:44.727Z,17.99
2023-03-26T13:15:13.739Z,18.09
2023-03-26T13:18:24.862Z,18.04
2023-03-26T13:21:41.415Z,18.18
2023-03-26T13:25:08.392Z,17.69
2023-03-26T13:28:26.359Z,17.39
2023-03-26T13:31:41.945Z,17.32
2023-03-26T13:35:12.231Z,17.22
2023-03-26T13:38:27.285Z,17.11
2023-03-26T13:41:37.696Z,16.95
2023-03-26T13:44:53.217Z,17.02
2023-03-26T13:48:17.264Z,16.94
2023-03-26T13:51:42.718Z,17.01
2023-03-26T13:55:00.568Z,17.08
2023-03-26T13:58:11.081Z,17.12
2023-03-26T14:01:34.305Z,17.13
2023-03-26T14:04:44.534Z,17.10
2023-03-26T14:07:52.698Z,17.14
2023-03-26T14:11:01.895Z,17.26
2023-03-26T14:14:13.552Z,17.43
2023-03-26T14:17:26.426Z,17.55
2023-03-26T14:20:41.203Z,17.87
2023-03-26T14:24:02.642Z,18.00
2023-03-26T14:27:21.864Z,17.85
2023-03-26T14:30:42.370Z,17.61
2023-03-26T14:34:07.499Z,17.45
2023-03-26T14:37:37.969Z,17.40
2023-03-26T14:40:43.730Z,17.25
2023-03-26T14:44:05.601Z,17.14
2023-03-26T14:47:20.956Z,17.16
2023-03-26T14:50:38.852Z,17.23
2023-03-26T14:53:49.787Z,17.33
2023-03-26T14:57:28.384Z,17.47
2023-03-26T15:01:15.125Z,17.45
2023-03-26T15:04:33.038Z,17.34
2023-03-26T15:07:51.653Z,17.43
2023-03-26T15:11:24.335Z,17.47
2023-03-26T15:14:36.062Z,17.33
2023-03-26T15:17:57.572Z,17.34
2023-03-26T15:21:18.784Z,17.24
2023-03-26T15:24:46.413Z,17.21
2023-03-26T15:28:12.268Z,17.14
2023-03-26T15:31:49.465Z,17.02
2023-03-26T15:35:17.542Z,16.99
2023-03-26T15:38:42.534Z,16.99
2023-03-26T15:41:55.421Z,16.94
2023-03-26T15:45:19.424Z,16.86
2023-03-26T15:48:34.964Z,16.79
2023-03-26T15:51:49.422Z,16.66
2023-03-26T15:55:17.008Z,16.51
2023-03-26T15:58:31.891Z,16.32
2023-03-26T16:02:02.415Z,16.19
2023-03-26T16:05:33.372Z,16.05
2023-03-26T16:08:39.234Z,15.90
2023-03-26T16:11:43.524Z,15.81
2023-03-26T16:15:03.936Z,15.62
2023-03-26T16:18:11.757Z,15.59
2023-03-26T16:21:37.206Z,15.49
2023-03-26T16:24:44.817Z,15.34
2023-03-26T16:28:05.258Z,15.20
2023-03-26T16:31:23.550Z,15.08
2023-03-26T16:35:00.418Z,14.93
2023-03-26T16:38:11.575Z,14.78
2023-03-26T16:41:19.745Z,14.64
2023-03-26T16:44:35.074Z,14.55
2023-03-26T16:47:52.744Z,14.46
2023-03-26T16:51:31.919Z,14.36
2023-03-26T16:54:54.069Z,14.34
2023-03-26T16:58:29.871Z,14.34
2023-03-26T17:01:56.290Z,14.30
2023-03-26T17:05:34.298Z,14.25
2023-03-26T17:09:04.666Z,14.19
2023-03-26T17:12:32.977Z,14.10
2023-03-26T17:15:42.264Z,13.98
2023-03-26T17:18:51.817Z,13.81
2023-03-26T17:22:00.887Z,13.83
2023-03-26T17:25:28.744Z,13.67
2023-03-26T17:28:41.257Z,13.69
2023-03-26T17:31:51.162Z,13.61
2023-03-26T17:35:02.136Z,13.52
2023-03-26T17:38:17.789Z,13.37
2023-03-26T17:41:51.162Z,13.42
2023-03-26T17:45:07.939Z,13.34
2023-03-26T17:48:21.898Z,13.14
2023-03-26T17:51:46.584Z,13.18
2023-03-26T17:54:53.356Z,13.10
2023-03-26T17:58:19.000Z,12.99
2023-03-26T18:01:28.908Z,12.87
2023-03-26T18:04:39.067Z,12.81
2023-03-26T18:08:06.231Z,12.66
2023-03-26T18:11:24.632Z,12.81
2023-03-26T18:14:52.458Z,12.78
2023-03-26T18:18:16.587Z,12.78
2023-03-26T18:21:27.916Z,12.74
2023-03-26T18:24:36.675Z,12.79
2023-03-26T18:27:40.959Z,12.81
2023-03-26T18:30:47.806Z,12.83
2023-03-26T18:33:55.817Z,12.80
2023-03-26T18:37:08.486Z,12.84
2023-03-26T18:40:21.029Z,12.85
2023-03-26T18:43:34.492Z,12.85
2023-03-26T18:46:38.691Z,12.82
2023-03-26T18:49:47.424Z,12.82
2023-03-26T18:52:51.245Z,12.90
2023-03-26T18:55:54.768Z,12.89
2023-03-26T18:59:02.521Z,12.89
2023-03-26T19:02:13.904Z,12.88
2023-03-26T19:05:18.561Z,12.90
2023-03-26T19:08:23.883Z,12.90
2023-03-26T19:11:28.071Z,12.88
2023-03-26T19:14:35.385Z,12.92
2023-03-26T19:17:42.412Z,12.94
2023-03-26T19:20:50.065Z,12.96
2023-03-26T19:23:55.811Z,13.02
2023-03-26T19:26:59.682Z,12.95
2023-03-26T19:30:02.654Z,12.92
2023-03-26T19:33:19.283Z,12.96
2023-03-26T19:36:29.630Z,12.98
2023-03-26T19:39:40.481Z,12.98
2023-03-26T19:42:44.927Z,12.99
2023-03-26T19:46:00.111Z,12.93
2023-03-26T19:49:04.462Z,12.80
2023-03-26T19:52:15.979Z,12.89
2023-03-26T19:55:22.539Z,12.92
2023-03-26T19:58:27.587Z,12.91
2023-03-26T20:04:35.131Z,12.87
2023-03-26T20:07:39.382Z,12.83
2023-03-26T20:10:44.276Z,12.78
2023-03-26T20:13:48.177Z,12.74
2023-03-26T20:16:52.221Z,12.64
2023-03-26T20:19:55.143Z,12.69
2023-03-26T20:22:58.556Z,12.74
2023-03-26T20:26:01.184Z,12.66
2023-03-26T20:29:04.807Z,12.73
2023-03-26T20:32:19.785Z,12.75
2023-03-26T20:35:35.605Z,12.67
2023-03-26T20:38:45.093Z,12.61
2023-03-26T20:41:50.076Z,12.51
2023-03-26T20:44:52.704Z,12.47
2023-03-26T20:47:55.748Z,12.45
2023-03-26T20:50:58.841Z,12.42
2023-03-26T20:54:02.657Z,12.30
2023-03-26T20:57:05.548Z,12.35
2023-03-26T21:00:23.256Z,12.34
2023-03-26T21:03:25.919Z,12.32
2023-03-26T21:06:28.968Z,12.40
2023-03-26T21:09:35.560Z,12.32
2023-03-26T21:12:50.742Z,12.20
2023-03-26T21:15:53.686Z,12.03
2023-03-26T21:18:57.528Z,11.99
2023-03-26T21:22:17.416Z,11.94
2023-03-26T21:25:28.465Z,11.92
2023-03-26T21:28:42.431Z,11.97
2023-03-26T21:31:46.797Z,11.98
2023-03-26T21:34:58.644Z,11.86
2023-03-26T21:38:04.819Z,11.83
2023-03-26T21:41:07.918Z,11.61
2023-03-26T21:44:11.136Z,11.74
2023-03-26T21:47:14.179Z,11.86
2023-03-26T21:50:22.006Z,11.64
2023-03-26T21:53:25.072Z,11.51
2023-03-26T21:56:59.054Z,11.05
2023-03-26T22:00:18.467Z,10.81
2023-03-26T22:03:50.499Z,10.69
2023-03-26T22:07:14.097Z,10.63
2023-03-26T22:10:18.691Z,10.60
2023-03-26T22:13:21.350Z,10.68
2023-03-26T22:16:27.100Z,10.55
2023-03-26T22:19:30.554Z,10.46
2023-03-26T22:22:34.674Z,10.31
2023-03-26T22:25:37.456Z,10.51
2023-03-26T22:28:40.347Z,10.59
2023-03-26T22:31:43.051Z,10.41
2023-03-26T22:34:46.121Z,10.50
2023-03-26T22:37:49.024Z,10.38
2023-03-26T22:40:58.995Z,10.29
2023-03-26T22:44:13.274Z,10.46
2023-03-26T22:47:22.570Z,10.48
2023-03-26T22:50:27.115Z,10.38
2023-03-26T22:53:30.955Z,10.48
2023-03-26T22:56:33.733Z,10.29
2023-03-26T22:59:37.131Z,10.26
2023-03-26T23:02:40.748Z,10.11
2023-03-26T23:05:43.636Z,10.23
2023-03-26T23:08:46.802Z,10.29
2023-03-26T23:11:50.697Z,10.28
2023-03-26T23:14:53.690Z,10.33
2023-03-26T23:17:58.876Z,10.33
2023-03-26T23:21:01.636Z,10.35
2023-03-26T23:24:05.055Z,10.26
2023-03-26T23:27:07.943Z,10.21
2023-03-26T23:30:11.545Z,10.29
2023-03-26T23:33:15.347Z,10.28
2023-03-26T23:36:20.042Z,10.27
2023-03-26T23:39:22.712Z,10.21
2023-03-26T23:42:29.016Z,10.12
2023-03-26T23:45:33.421Z,10.16
2023-03-26T23:48:37.497Z,10.10
2023-03-26T23:51:40.260Z,10.17
2023-03-26T23:54:43.182Z,10.01
2023-03-26T23:57:46.449Z,10.00
